Time;durP1;ratioP1;P1;durP2;ratioP2;P2;SDS_P1;SDS_P2;PMS_P1;PMS_P2;Temp;Humidity;BMP_temperature;BMP_pressure;BME280_temperature;BME280_humidity;BME280_pressure;Samples;Min_cycle;Max_cycle;Signal;HPM_P1;HPM_P2
2023/04/24 00:00:47;;;;;;;;;;;;;;;;;;5069111;28;19920;-60
2023/04/24 00:03:12;;;;;;;;;;;;;;;;;;5087269;28;19924;-60
2023/04/24 00:05:40;;;;;;;;;;;;;;;;;;5070832;28;19973;-60
2023/04/24 00:08:06;;;;;;;;;;;;;;;;;;5094882;28;19928;-60
2023/04/24 00:10:31;;;;;;;;;;;;;;;;;;5093444;28;19927;-60
2023/04/24 00:12:57;;;;;;;;;;;;;;;;;;5084838;28;19919;-60
2023/04/24 00:15:23;;;;;;;;;;;;;;;;;;5081427;28;19942;-61
2023/04/24 00:17:49;;;;;;;;;;;;;;;;;;5086721;28;19924;-61
2023/04/24 00:20:15;;;;;;;;;;;;;;;;;;5087674;28;20061;-61
2023/04/24 00:22:41;;;;;;;;;;;;;;;;;;5093724;28;20003;-61
2023/04/24 00:25:07;;;;;;;;;;;;;;;;;;5090825;28;19964;-61
2023/04/24 00:27:34;;;;;;;;;;;;;;;;;;5093254;28;20498;-61
2023/04/24 00:30:00;;;;;;;;;;;;;;;;;;5091255;28;20141;-61
2023/04/24 00:32:26;;;;;;;;;;;;;;;;;;5091411;28;20019;-61
2023/04/24 00:34:52;;;;;;;;;;;;;;;;;;5071136;28;19924;-61
2023/04/24 00:37:18;;;;;;;;;;;;;;;;;;5090508;28;19928;-61
2023/04/24 00:39:44;;;;;;;;;;;;;;;;;;5089719;28;20531;-62
2023/04/24 00:42:10;;;;;;;;;;;;;;;;;;5064786;28;19928;-62
2023/04/24 00:44:36;;;;;;;;;;;;;;;;;;5062983;28;19924;-61
2023/04/24 00:47:02;;;;;;;;;;;;;;;;;;5056254;28;20507;-60
2023/04/24 00:49:28;;;;;;;;;;;;;;;;;;5080620;28;19964;-61
2023/04/24 00:51:54;;;;;;;;;;;;;;;;;;5094236;28;19973;-61
2023/04/24 00:54:20;;;;;;;;;;;;;;;;;;5086990;28;19974;-60
2023/04/24 00:56:46;;;;;;;;;;;;;;;;;;5088939;28;19928;-60
2023/04/24 00:59:12;;;;;;;;;;;;;;;;;;5093986;28;19924;-60
2023/04/24 01:01:37;;;;;;;;;;;;;;;;;;5081214;28;19925;-60
2023/04/24 01:04:03;;;;;;;;;;;;;;;;;;5086737;28;20352;-61
2023/04/24 01:06:30;;;;;;;;;;;;;;;;;;5088420;28;19920;-61
2023/04/24 01:08:56;;;;;;;;;;;;;;;;;;5062022;28;20019;-61
2023/04/24 01:11:22;;;;;;;;;;;;;;;;;;5083991;28;20417;-61
2023/04/24 01:13:48;;;;;;;;;;;;;;;;;;5093033;28;19920;-61
2023/04/24 01:16:14;;;;;;;;;;;;;;;;;;5091479;28;20374;-61
2023/04/24 01:18:41;;;;;;;;;;;;;;;;;;5093851;28;19924;-61
2023/04/24 01:21:06;;;;;;;;;;;;;;;;;;5088454;28;19928;-61
2023/04/24 01:23:32;;;;;;;;;;;;;;;;;;5092328;28;20571;-61
2023/04/24 01:25:58;;;;;;;;;;;;;;;;;;5074067;28;19924;-61
2023/04/24 01:28:24;;;;;;;;;;;;;;;;;;5091478;28;19927;-61
2023/04/24 01:30:50;;;;;;;;;;;;;;;;;;5069184;28;20397;-61
2023/04/24 01:33:16;;;;;;;;;;;;;;;;;;5092261;28;19931;-61
2023/04/24 01:35:42;;;;;;;;;;;;;;;;;;5092289;28;19932;-60
2023/04/24 01:38:08;;;;;;;;;;;;;;;;;;5090241;28;19920;-60
2023/04/24 01:40:34;;;;;;;;;;;;;;;;;;5089881;28;20052;-61
2023/04/24 01:43:00;;;;;;;;;;;;;;;;;;5089612;28;20666;-60
2023/04/24 01:45:26;;;;;;;;;;;;;;;;;;5082371;28;19928;-61
2023/04/24 01:47:51;;;;;;;;;;;;;;;;;;5092038;28;19927;-61
2023/04/24 01:50:17;;;;;;;;;;;;;;;;;;5090101;28;19920;-62
2023/04/24 01:52:43;;;;;;;;;;;;;;;;;;5086405;28;19931;-62
2023/04/24 01:55:09;;;;;;;;;;;;;;;;;;5087267;28;20273;-61
2023/04/24 01:57:35;;;;;;;;;;;;;;;;;;5087869;28;19973;-61
2023/04/24 02:00:03;;;;;;;;;;;;;;;;;;5071561;28;19974;-61
2023/04/24 02:02:29;;;;;;;;;;;;;;;;;;5089522;28;19928;-61
2023/04/24 02:04:55;;;;;;;;;;;;;;;;;;5091962;28;20345;-61
2023/04/24 02:07:21;;;;;;;;;;;;;;;;;;5091714;28;19985;-61
2023/04/24 02:09:47;;;;;;;;;;;;;;;;;;5070247;28;20006;-61
2023/04/24 02:12:13;;;;;;;;;;;;;;;;;;5079155;28;19920;-61
2023/04/24 02:14:39;;;;;;;;;;;;;;;;;;5089012;28;20011;-61
2023/04/24 02:17:05;;;;;;;;;;;;;;;;;;5091068;28;20011;-61
2023/04/24 02:19:32;;;;;;;;;;;;;;;;;;5090157;22;19928;-64
2023/04/24 02:21:57;;;;;;;;;;;;;;;;;;5048949;28;20450;-66
2023/04/24 02:24:23;;;;;;;;;;;;;;;;;;5031073;28;20331;-66
2023/04/24 02:26:49;;;;;;;;;;;;;;;;;;5015348;28;19963;-65
2023/04/24 02:29:15;;;;;;;;;;;;;;;;;;5048668;28;19971;-65
2023/04/24 02:31:41;;;;;;;;;;;;;;;;;;5050212;28;19928;-65
2023/04/24 02:34:07;;;;;;;;;;;;;;;;;;5051481;28;20293;-65
2023/04/24 02:36:33;;;;;;;;;;;;;;;;;;5047737;28;19960;-65
2023/04/24 02:39:00;;;;;;;;;;;;;;;;;;5051868;28;19921;-65
2023/04/24 02:41:31;;;;;;;;;;;;;;;;;;5030494;28;20354;-66
2023/04/24 02:43:57;;;;;;;;;;;;;;;;;;5043970;28;19925;-66
2023/04/24 02:46:23;;;;;;;;;;;;;;;;;;5047259;28;19921;-67
2023/04/24 02:48:49;;;;;;;;;;;;;;;;;;5046749;28;19921;-67
2023/04/24 02:51:14;;;;;;;;;;;;;;;;;;5030871;28;19932;-65
2023/04/24 02:53:40;;;;;;;;;;;;;;;;;;5032443;28;20031;-66
2023/04/24 02:56:06;;;;;;;;;;;;;;;;;;5014731;28;20448;-65
2023/04/24 02:58:32;;;;;;;;;;;;;;;;;;5032487;28;19921;-66
2023/04/24 03:00:58;;;;;;;;;;;;;;;;;;5045029;28;19928;-66
2023/04/24 03:03:24;;;;;;;;;;;;;;;;;;5048741;28;19944;-66
2023/04/24 03:05:50;;;;;;;;;;;;;;;;;;5049591;28;19921;-66
2023/04/24 03:08:17;;;;;;;;;;;;;;;;;;5035799;28;20663;-65
2023/04/24 03:10:43;;;;;;;;;;;;;;;;;;5035273;28;19924;-65
2023/04/24 03:13:09;;;;;;;;;;;;;;;;;;5051511;28;19928;-66
2023/04/24 03:15:35;;;;;;;;;;;;;;;;;;5062671;28;19925;-66
2023/04/24 03:18:02;;;;;;;;;;;;;;;;;;5019951;28;20291;-66
2023/04/24 03:20:28;;;;;;;;;;;;;;;;;;5035044;28;19935;-66
2023/04/24 03:22:54;;;;;;;;;;;;;;;;;;5054289;28;19929;-66
2023/04/24 03:25:20;;;;;;;;;;;;;;;;;;5051012;28;19978;-66
2023/04/24 03:27:46;;;;;;;;;;;;;;;;;;5052788;28;19928;-66
2023/04/24 03:30:12;;;;;;;;;;;;;;;;;;5046388;28;19925;-65
2023/04/24 03:32:39;;;;;;;;;;;;;;;;;;5033399;28;19924;-66
2023/04/24 03:35:05;;;;;;;;;;;;;;;;;;5017437;28;19983;-66
2023/04/24 03:37:30;;;;;;;;;;;;;;;;;;5018917;28;19925;-66
2023/04/24 03:39:56;;;;;;;;;;;;;;;;;;5052372;28;19924;-65
2023/04/24 03:42:22;;;;;;;;;;;;;;;;;;5030764;28;19972;-65
2023/04/24 03:44:48;;;;;;;;;;;;;;;;;;5032224;28;20007;-66
2023/04/24 03:47:14;;;;;;;;;;;;;;;;;;5030957;28;19939;-66
2023/04/24 03:49:40;;;;;;;;;;;;;;;;;;5033598;28;19943;-66
2023/04/24 03:52:06;;;;;;;;;;;;;;;;;;5052797;28;20394;-66
2023/04/24 03:54:32;;;;;;;;;;;;;;;;;;5051814;28;19924;-66
2023/04/24 03:56:58;;;;;;;;;;;;;;;;;;5033215;28;19935;-66
2023/04/24 03:59:24;;;;;;;;;;;;;;;;;;5053289;28;19964;-66
2023/04/24 04:01:50;;;;;;;;;;;;;;;;;;5052407;28;19920;-66
2023/04/24 04:04:16;;;;;;;;;;;;;;;;;;5050452;28;19928;-66
2023/04/24 04:06:42;;;;;;;;;;;;;;;;;;5033460;28;19936;-66
2023/04/24 04:09:08;;;;;;;;;;;;;;;;;;5053244;28;19920;-65
2023/04/24 04:11:35;;;;;;;;;;;;;;;;;;5052412;28;19920;-65
2023/04/24 04:14:01;;;;;;;;;;;;;;;;;;5052983;28;20385;-65
2023/04/24 04:16:27;;;;;;;;;;;;;;;;;;5028515;28;20010;-65
2023/04/24 04:18:52;;;;;;;;;;;;;;;;;;5051769;28;19920;-65
2023/04/24 04:21:19;;;;;;;;;;;;;;;;;;5065593;28;19928;-66
2023/04/24 04:23:45;;;;;;;;;;;;;;;;;;5070176;28;19921;-66
2023/04/24 04:26:11;;;;;;;;;;;;;;;;;;5058740;28;19999;-66
2023/04/24 04:28:37;;;;;;;;;;;;;;;;;;5055169;28;19920;-66
2023/04/24 04:31:03;;;;;;;;;;;;;;;;;;5057125;28;19935;-66
2023/04/24 04:33:29;;;;;;;;;;;;;;;;;;5058950;28;20000;-66
2023/04/24 04:35:58;;;;;;;;;;;;;;;;;;5057079;28;19978;-66
2023/04/24 04:38:26;;;;;;;;;;;;;;;;;;5072588;28;19978;-66
2023/04/24 04:40:52;;;;;;;;;;;;;;;;;;5050124;28;19932;-66
2023/04/24 04:43:18;;;;;;;;;;;;;;;;;;5058658;28;20366;-66
2023/04/24 04:45:44;;;;;;;;;;;;;;;;;;5071034;28;19920;-66
2023/04/24 04:48:13;;;;;;;;;;;;;;;;;;5028843;28;19924;-64
2023/04/24 04:50:39;;;;;;;;;;;;;;;;;;5056582;28;19924;-65
2023/04/24 04:53:05;;;;;;;;;;;;;;;;;;5057072;28;19971;-66
2023/04/24 04:55:31;;;;;;;;;;;;;;;;;;5071822;28;20277;-67
2023/04/24 04:57:57;;;;;;;;;;;;;;;;;;5079489;28;19930;-66
2023/04/24 05:00:27;;;;;;;;;;;;;;;;;;5076879;28;20514;-66
2023/04/24 05:02:52;;;;;;;;;;;;;;;;;;5065624;28;19921;-66
2023/04/24 05:05:18;;;;;;;;;;;;;;;;;;5054084;28;20376;-66
2023/04/24 05:07:44;;;;;;;;;;;;;;;;;;5073207;28;20374;-66
2023/04/24 05:10:10;;;;;;;;;;;;;;;;;;5037768;28;19971;-67
2023/04/24 05:12:36;;;;;;;;;;;;;;;;;;5071006;28;19973;-67
2023/04/24 05:15:02;;;;;;;;;;;;;;;;;;5070464;28;19928;-66
2023/04/24 05:17:28;;;;;;;;;;;;;;;;;;5089098;28;19959;-65
2023/04/24 05:19:54;;;;;;;;;;;;;;;;;;5041722;28;20347;-65
2023/04/24 05:22:21;;;;;;;;;;;;;;;;;;5051996;28;19974;-65
2023/04/24 05:24:47;;;;;;;;;;;;;;;;;;5049892;28;20275;-66
2023/04/24 05:27:13;;;;;;;;;;;;;;;;;;5036764;28;19927;-66
2023/04/24 05:29:38;;;;;;;;;;;;;;;;;;5027335;28;19924;-65
2023/04/24 05:32:04;;;;;;;;;;;;;;;;;;5049957;28;20062;-66
2023/04/24 05:34:30;;;;;;;;;;;;;;;;;;5050631;28;20547;-66
2023/04/24 05:36:56;;;;;;;;;;;;;;;;;;5051446;28;19931;-66
2023/04/24 05:39:24;;;;;;;;;;;;;;;;;;5039664;28;19963;-66
2023/04/24 05:41:50;;;;;;;;;;;;;;;;;;5055565;28;19927;-66
2023/04/24 05:44:16;;;;;;;;;;;;;;;;;;5046392;28;19995;-66
2023/04/24 05:46:42;;;;;;;;;;;;;;;;;;5030261;28;19935;-66
2023/04/24 05:49:08;;;;;;;;;;;;;;;;;;5049904;28;19928;-67
2023/04/24 05:51:34;;;;;;;;;;;;;;;;;;5048958;28;19983;-66
2023/04/24 05:54:01;;;;;;;;;;;;;;;;;;5051543;28;19925;-66
2023/04/24 05:56:27;;;;;;;;;;;;;;;;;;5054053;28;19932;-65
2023/04/24 05:58:52;;;;;;;;;;;;;;;;;;5038746;28;19924;-66
2023/04/24 06:01:19;;;;;;;;;;;;;;;;;;5048729;28;19975;-66
2023/04/24 06:03:45;;;;;;;;;;;;;;;;;;5048323;28;19921;-66
2023/04/24 06:06:11;;;;;;;;;;;;;;;;;;5034651;28;19920;-65
2023/04/24 06:08:37;;;;;;;;;;;;;;;;;;5052683;28;19924;-65
2023/04/24 06:11:03;;;;;;;;;;;;;;;;;;5014869;28;19932;-66
2023/04/24 06:13:28;;;;;;;;;;;;;;;;;;5032032;28;19921;-66
2023/04/24 06:15:54;;;;;;;;;;;;;;;;;;5046047;28;19986;-66
2023/04/24 06:18:20;;;;;;;;;;;;;;;;;;5019553;28;19925;-66
2023/04/24 06:20:46;;;;;;;;;;;;;;;;;;5031220;28;19924;-66
2023/04/24 06:23:12;;;;;;;;;;;;;;;;;;5062446;28;20340;-66
2023/04/24 06:25:38;;;;;;;;;;;;;;;;;;5069391;28;19920;-66
2023/04/24 06:28:04;;;;;;;;;;;;;;;;;;5069433;28;19924;-67
2023/04/24 06:30:30;;;;;;;;;;;;;;;;;;5053494;28;19973;-67
2023/04/24 06:32:56;;;;;;;;;;;;;;;;;;5049494;28;19999;-66
2023/04/24 06:35:22;;;;;;;;;;;;;;;;;;5053594;28;20014;-66
2023/04/24 06:37:48;;;;;;;;;;;;;;;;;;5059847;28;20397;-66
2023/04/24 06:40:14;;;;;;;;;;;;;;;;;;5067001;28;19962;-65
2023/04/24 06:42:40;;;;;;;;;;;;;;;;;;5072316;28;20396;-65
2023/04/24 06:45:06;;;;;;;;;;;;;;;;;;5063748;28;19924;-66
2023/04/24 06:47:32;;;;;;;;;;;;;;;;;;5045515;28;19950;-65
2023/04/24 06:49:58;;;;;;;;;;;;;;;;;;5062106;28;20456;-66
2023/04/24 06:52:24;;;;;;;;;;;;;;;;;;5051191;28;19920;-66
2023/04/24 06:54:50;;;;;;;;;;;;;;;;;;5051385;28;20547;-66
2023/04/24 06:57:16;;;;;;;;;;;;;;;;;;5069324;28;20034;-65
2023/04/24 06:59:42;;;;;;;;;;;;;;;;;;5074238;28;19931;-66
2023/04/24 07:02:08;;;;;;;;;;;;;;;;;;5034132;28;20002;-64
2023/04/24 07:04:33;;;;;;;;;;;;;;;;;;5051299;28;19930;-66
2023/04/24 07:06:59;;;;;;;;;;;;;;;;;;5067710;28;19929;-66
2023/04/24 07:09:25;;;;;;;;;;;;;;;;;;5061193;28;21535;-66
2023/04/24 07:11:51;;;;;;;;;;;;;;;;;;5064703;28;19974;-66
2023/04/24 07:14:17;;;;;;;;;;;;;;;;;;5068591;28;19978;-66
2023/04/24 07:16:43;;;;;;;;;;;;;;;;;;5068987;28;19986;-66
2023/04/24 07:19:09;;;;;;;;;;;;;;;;;;5067236;28;19960;-66
2023/04/24 07:21:35;;;;;;;;;;;;;;;;;;5070209;28;20322;-66
2023/04/24 07:24:01;;;;;;;;;;;;;;;;;;5053178;28;19928;-67
2023/04/24 07:26:27;;;;;;;;;;;;;;;;;;5068291;28;19974;-66
2023/04/24 07:28:53;;;;;;;;;;;;;;;;;;5067083;28;19920;-65
2023/04/24 07:31:18;;;;;;;;;;;;;;;;;;5045900;28;19943;-66
2023/04/24 07:33:44;;;;;;;;;;;;;;;;;;5069293;28;19924;-65
2023/04/24 07:36:15;;;;;;;;;;;;;;;;;;5062395;28;19929;-65
2023/04/24 07:38:41;;;;;;;;;;;;;;;;;;5069488;28;19924;-66
2023/04/24 07:41:07;;;;;;;;;;;;;;;;;;5099322;28;20375;-64
2023/04/24 07:43:32;;;;;;;;;;;;;;;;;;5069136;28;19920;-65
2023/04/24 07:45:58;;;;;;;;;;;;;;;;;;5066424;28;19927;-65
2023/04/24 07:48:26;;;;;;;;;;;;;;;;;;5071101;28;19924;-64
2023/04/24 07:50:52;;;;;;;;;;;;;;;;;;5068192;28;19924;-65
2023/04/24 07:53:17;;;;;;;;;;;;;;;;;;5066222;28;19932;-66
2023/04/24 07:55:43;;;;;;;;;;;;;;;;;;5064749;28;20027;-64
2023/04/24 07:58:09;;;;;;;;;;;;;;;;;;5070417;28;20365;-66
2023/04/24 08:00:35;;;;;;;;;;;;;;;;;;5075009;28;19927;-64
2023/04/24 08:03:01;;;;;;;;;;;;;;;;;;5087621;28;19920;-65
2023/04/24 08:05:28;;;;;;;;;;;;;;;;;;5053523;28;20010;-65
2023/04/24 08:07:54;;;;;;;;;;;;;;;;;;5071792;28;19920;-65
2023/04/24 08:10:20;;;;;;;;;;;;;;;;;;5085814;28;19933;-65
2023/04/24 08:12:46;;;;;;;;;;;;;;;;;;5072270;28;19963;-65
2023/04/24 08:15:12;;;;;;;;;;;;;;;;;;5084693;28;19963;-65
2023/04/24 08:17:37;;;;;;;;;;;;;;;;;;5074751;28;19924;-65
2023/04/24 08:20:04;;;;;;;;;;;;;;;;;;5076857;23;19936;-64
2023/04/24 08:22:30;;;;;;;;;;;;;;;;;;5104619;28;19927;-65
2023/04/24 08:24:56;;;;;;;;;;;;;;;;;;5094960;28;20550;-64
2023/04/24 08:27:22;;;;;;;;;;;;;;;;;;5100103;28;19928;-64
2023/04/24 08:29:48;;;;;;;;;;;;;;;;;;5066953;28;19920;-64
2023/04/24 08:32:14;;;;;;;;;;;;;;;;;;5087935;28;19919;-64
2023/04/24 08:34:40;;;;;;;;;;;;;;;;;;5093348;28;19924;-64
2023/04/24 08:37:06;;;;;;;;;;;;;;;;;;5075611;28;19994;-64
2023/04/24 08:39:32;;;;;;;;;;;;;;;;;;5092532;28;19924;-64
2023/04/24 08:42:04;;;;;;;;;;;;;;;;;;5094012;28;19971;-64
2023/04/24 08:44:30;;;;;;;;;;;;;;;;;;5092819;28;19967;-64
2023/04/24 08:46:56;;;;;;;;;;;;;;;;;;5097235;28;19970;-64
2023/04/24 08:49:22;;;;;;;;;;;;;;;;;;5086802;28;20030;-64
2023/04/24 08:51:49;;;;;;;;;;;;;;;;;;5093537;28;19920;-65
2023/04/24 08:54:15;;;;;;;;;;;;;;;;;;5093710;28;19966;-64
2023/04/24 08:56:41;;;;;;;;;;;;;;;;;;5092693;28;19959;-64
2023/04/24 08:59:07;;;;;;;;;;;;;;;;;;5092535;28;19920;-64
2023/04/24 09:01:33;;;;;;;;;;;;;;;;;;5088530;28;19974;-64
2023/04/24 09:03:59;;;;;;;;;;;;;;;;;;5072274;28;19928;-64
2023/04/24 09:06:26;;;;;;;;;;;;;;;;;;5056613;28;19920;-63
2023/04/24 09:08:51;;;;;;;;;;;;;;;;;;5093375;28;19927;-64
2023/04/24 09:11:17;;;;;;;;;;;;;;;;;;5093603;28;19927;-65
2023/04/24 09:13:43;;;;;;;;;;;;;;;;;;5092722;28;20336;-64
2023/04/24 09:16:09;;;;;;;;;;;;;;;;;;5093325;28;19932;-64
2023/04/24 09:18:35;;;;;;;;;;;;;;;;;;5093384;28;19924;-64
2023/04/24 09:21:01;;;;;;;;;;;;;;;;;;5111189;28;19966;-65
2023/04/24 09:23:27;;;;;;;;;;;;;;;;;;5077741;28;19927;-65
2023/04/24 09:25:53;;;;;;;;;;;;;;;;;;5095204;28;19924;-65
2023/04/24 09:28:19;;;;;;;;;;;;;;;;;;5113386;28;19920;-64
2023/04/24 09:30:45;;;;;;;;;;;;;;;;;;5091705;28;19920;-65
2023/04/24 09:33:11;;;;;;;;;;;;;;;;;;5107013;28;19965;-64
2023/04/24 09:35:37;;;;;;;;;;;;;;;;;;5113249;28;19935;-64
2023/04/24 09:38:03;;;;;;;;;;;;;;;;;;5094586;28;19923;-64
2023/04/24 09:40:29;;;;;;;;;;;;;;;;;;5113134;28;19973;-64
2023/04/24 09:42:55;;;;;;;;;;;;;;;;;;5113302;28;19955;-63
2023/04/24 09:45:21;;;;;;;;;;;;;;;;;;5113404;28;19919;-65
2023/04/24 09:47:47;;;;;;;;;;;;;;;;;;5094455;28;20010;-65
2023/04/24 09:50:13;;;;;;;;;;;;;;;;;;5093952;28;19999;-65
2023/04/24 09:52:39;;;;;;;;;;;;;;;;;;5112579;28;20405;-64
2023/04/24 09:55:05;;;;;;;;;;;;;;;;;;5094166;28;19919;-64
2023/04/24 09:57:31;;;;;;;;;;;;;;;;;;5077127;28;19919;-65
2023/04/24 09:59:57;;;;;;;;;;;;;;;;;;5094103;28;20003;-65
2023/04/24 10:02:22;;;;;;;;;;;;;;;;;;5100438;28;19928;-65
2023/04/24 10:04:48;;;;;;;;;;;;;;;;;;5074177;28;20281;-65
2023/04/24 10:07:14;;;;;;;;;;;;;;;;;;5092510;28;19924;-66
2023/04/24 10:09:40;;;;;;;;;;;;;;;;;;5102888;27;19951;-65
2023/04/24 10:12:07;;;;;;;;;;;;;;;;;;5112401;28;20423;-65
2023/04/24 10:14:33;;;;;;;;;;;;;;;;;;5093115;28;19920;-65
2023/04/24 10:16:59;;;;;;;;;;;;;;;;;;5111048;28;20266;-65
2023/04/24 10:19:25;;;;;;;;;;;;;;;;;;5112238;28;19977;-65
2023/04/24 10:21:51;;;;;;;;;;;;;;;;;;5112178;28;19968;-65
2023/04/24 10:24:17;;;;;;;;;;;;;;;;;;5112627;28;20011;-65
2023/04/24 10:26:43;;;;;;;;;;;;;;;;;;5112447;28;20435;-64
2023/04/24 10:29:09;;;;;;;;;;;;;;;;;;5112436;28;20057;-64
2023/04/24 10:31:35;;;;;;;;;;;;;;;;;;5109121;28;19924;-66
2023/04/24 10:34:01;;;;;;;;;;;;;;;;;;5095124;28;19923;-64
2023/04/24 10:36:27;;;;;;;;;;;;;;;;;;5091146;28;19991;-65
2023/04/24 10:38:53;;;;;;;;;;;;;;;;;;5091860;28;19927;-65
2023/04/24 10:41:22;;;;;;;;;;;;;;;;;;5108330;28;19920;-66
2023/04/24 10:43:50;;;;;;;;;;;;;;;;;;5093919;28;19955;-65
2023/04/24 10:46:16;;;;;;;;;;;;;;;;;;5076886;28;20544;-64
2023/04/24 10:48:42;;;;;;;;;;;;;;;;;;5089459;28;19928;-65
2023/04/24 10:51:08;;;;;;;;;;;;;;;;;;5093005;28;19998;-65
2023/04/24 10:53:34;;;;;;;;;;;;;;;;;;5073449;28;20106;-65
2023/04/24 10:56:01;;;;;;;;;;;;;;;;;;5091477;28;19928;-65
2023/04/24 10:58:27;;;;;;;;;;;;;;;;;;5073504;28;19920;-65
2023/04/24 11:00:53;;;;;;;;;;;;;;;;;;5091659;28;19924;-65
2023/04/24 11:03:18;;;;;;;;;;;;;;;;;;5071614;28;19932;-66
2023/04/24 11:05:44;;;;;;;;;;;;;;;;;;5086465;28;19995;-66
2023/04/24 11:08:11;;;;;;;;;;;;;;;;;;5093625;28;20022;-65
2023/04/24 11:10:37;;;;;;;;;;;;;;;;;;5092919;28;19924;-64
2023/04/24 11:13:03;;;;;;;;;;;;;;;;;;5091568;28;20319;-65
2023/04/24 11:15:29;;;;;;;;;;;;;;;;;;5091396;28;19931;-65
2023/04/24 11:17:55;;;;;;;;;;;;;;;;;;5090217;28;20551;-65
2023/04/24 11:20:21;;;;;;;;;;;;;;;;;;5103734;28;20030;-65
2023/04/24 11:22:47;;;;;;;;;;;;;;;;;;5098598;28;19920;-65
2023/04/24 11:25:13;;;;;;;;;;;;;;;;;;5089878;28;20434;-65
2023/04/24 11:27:39;;;;;;;;;;;;;;;;;;5094482;28;19936;-65
2023/04/24 11:30:05;;;;;;;;;;;;;;;;;;5095484;28;19924;-65
2023/04/24 11:32:31;;;;;;;;;;;;;;;;;;5085061;28;19920;-64
2023/04/24 11:34:57;;;;;;;;;;;;;;;;;;5095381;28;19931;-65
2023/04/24 11:37:23;;;;;;;;;;;;;;;;;;5095383;28;19981;-65
2023/04/24 11:39:49;;;;;;;;;;;;;;;;;;5110595;28;19924;-65
2023/04/24 11:42:15;;;;;;;;;;;;;;;;;;5093877;28;19970;-65
2023/04/24 11:44:41;;;;;;;;;;;;;;;;;;5095286;28;19986;-65
2023/04/24 11:47:07;;;;;;;;;;;;;;;;;;5094968;28;19924;-66
2023/04/24 11:49:33;;;;;;;;;;;;;;;;;;5095119;28;19943;-66
2023/04/24 11:51:58;;;;;;;;;;;;;;;;;;5089683;28;20270;-66
2023/04/24 11:54:24;;;;;;;;;;;;;;;;;;5085974;28;19931;-66
2023/04/24 11:56:50;;;;;;;;;;;;;;;;;;5092653;28;19935;-65
2023/04/24 11:59:17;;;;;;;;;;;;;;;;;;5092524;28;19928;-66
2023/04/24 12:01:43;;;;;;;;;;;;;;;;;;5103580;28;20317;-65
2023/04/24 12:04:09;;;;;;;;;;;;;;;;;;5075247;28;19924;-65
2023/04/24 12:06:35;;;;;;;;;;;;;;;;;;5099431;28;19920;-64
2023/04/24 12:09:00;;;;;;;;;;;;;;;;;;5094681;28;19924;-65
2023/04/24 12:11:26;;;;;;;;;;;;;;;;;;5094486;28;19920;-65
2023/04/24 12:13:52;;;;;;;;;;;;;;;;;;5094092;28;19928;-65
2023/04/24 12:16:18;;;;;;;;;;;;;;;;;;5094240;28;20409;-65
2023/04/24 12:18:45;;;;;;;;;;;;;;;;;;5092880;28;20411;-64
2023/04/24 12:21:11;;;;;;;;;;;;;;;;;;5113411;28;19981;-64
2023/04/24 12:23:37;;;;;;;;;;;;;;;;;;5095544;28;19984;-65
2023/04/24 12:26:03;;;;;;;;;;;;;;;;;;5107123;28;20265;-64
2023/04/24 12:28:29;;;;;;;;;;;;;;;;;;5114595;28;19977;-66
2023/04/24 12:30:55;;;;;;;;;;;;;;;;;;5108214;28;19920;-65
2023/04/24 12:33:21;;;;;;;;;;;;;;;;;;5075899;28;20396;-65
2023/04/24 12:35:47;;;;;;;;;;;;;;;;;;5093726;28;19932;-64
2023/04/24 12:38:13;;;;;;;;;;;;;;;;;;5093895;28;19931;-65
2023/04/24 12:40:39;;;;;;;;;;;;;;;;;;5094130;28;20310;-65
2023/04/24 12:43:05;;;;;;;;;;;;;;;;;;5107441;28;19970;-64
2023/04/24 12:45:31;;;;;;;;;;;;;;;;;;5095748;28;19923;-64
2023/04/24 12:47:57;;;;;;;;;;;;;;;;;;5089547;28;19924;-65
2023/04/24 12:50:23;;;;;;;;;;;;;;;;;;5075690;28;19942;-65
2023/04/24 12:52:49;;;;;;;;;;;;;;;;;;5098098;28;19920;-64
2023/04/24 12:55:17;;;;;;;;;;;;;;;;;;5095401;28;21289;-64
2023/04/24 12:57:42;;;;;;;;;;;;;;;;;;5113946;28;19928;-64
2023/04/24 13:00:08;;;;;;;;;;;;;;;;;;5082971;28;19978;-65
2023/04/24 13:02:35;;;;;;;;;;;;;;;;;;5067776;28;19947;-65
2023/04/24 13:05:01;;;;;;;;;;;;;;;;;;5074402;28;19926;-66
2023/04/24 13:07:26;;;;;;;;;;;;;;;;;;5092956;28;20014;-65
2023/04/24 13:09:52;;;;;;;;;;;;;;;;;;5108866;28;20334;-64
2023/04/24 13:12:19;;;;;;;;;;;;;;;;;;5093298;28;19929;-65
2023/04/24 13:14:45;;;;;;;;;;;;;;;;;;5108195;28;19924;-65
2023/04/24 13:17:12;;;;;;;;;;;;;;;;;;5099640;28;20387;-65
2023/04/24 13:19:38;;;;;;;;;;;;;;;;;;5112846;28;19924;-63
2023/04/24 13:22:04;;;;;;;;;;;;;;;;;;5106250;28;20405;-65
2023/04/24 13:24:31;;;;;;;;;;;;;;;;;;5112097;28;19919;-64
2023/04/24 13:26:56;;;;;;;;;;;;;;;;;;5094162;28;19923;-64
2023/04/24 13:29:22;;;;;;;;;;;;;;;;;;5112586;28;19988;-65
2023/04/24 13:31:49;;;;;;;;;;;;;;;;;;5100945;28;19920;-65
2023/04/24 13:34:14;;;;;;;;;;;;;;;;;;5092441;28;19920;-65
2023/04/24 13:36:40;;;;;;;;;;;;;;;;;;5092460;28;19958;-65
2023/04/24 13:39:06;;;;;;;;;;;;;;;;;;5108018;28;19924;-64
2023/04/24 13:41:32;;;;;;;;;;;;;;;;;;5093077;28;19924;-65
2023/04/24 13:43:58;;;;;;;;;;;;;;;;;;5074713;28;20298;-65
2023/04/24 13:46:24;;;;;;;;;;;;;;;;;;5093169;28;19924;-62
2023/04/24 13:48:50;;;;;;;;;;;;;;;;;;5093367;28;19924;-62
2023/04/24 13:51:16;;;;;;;;;;;;;;;;;;5078847;28;19920;-63
2023/04/24 13:53:42;;;;;;;;;;;;;;;;;;5087691;28;19963;-62
2023/04/24 13:56:08;;;;;;;;;;;;;;;;;;5106000;28;20039;-62
2023/04/24 13:58:35;;;;;;;;;;;;;;;;;;5096444;28;19920;-62
2023/04/24 14:01:01;;;;;;;;;;;;;;;;;;5071914;28;20324;-62
2023/04/24 14:03:27;;;;;;;;;;;;;;;;;;5073324;28;19926;-62
2023/04/24 14:05:53;;;;;;;;;;;;;;;;;;5073539;28;19928;-62
2023/04/24 14:08:19;;;;;;;;;;;;;;;;;;5079801;28;20327;-62
2023/04/24 14:10:45;;;;;;;;;;;;;;;;;;5093917;28;19924;-62
2023/04/24 14:13:11;;;;;;;;;;;;;;;;;;5073659;28;20054;-62
2023/04/24 14:15:37;;;;;;;;;;;;;;;;;;5070746;28;20002;-62
2023/04/24 14:18:03;;;;;;;;;;;;;;;;;;5108992;28;19920;-62
2023/04/24 14:20:29;;;;;;;;;;;;;;;;;;5088076;28;19953;-62
2023/04/24 14:22:55;;;;;;;;;;;;;;;;;;5113844;28;19926;-62
2023/04/24 14:25:22;;;;;;;;;;;;;;;;;;5113374;28;19920;-62
2023/04/24 14:27:48;;;;;;;;;;;;;;;;;;5113519;28;19924;-62
2023/04/24 14:30:15;;;;;;;;;;;;;;;;;;5093940;28;19924;-62
2023/04/24 14:32:41;;;;;;;;;;;;;;;;;;5113059;28;19931;-62
2023/04/24 14:35:07;;;;;;;;;;;;;;;;;;5111842;28;20302;-62
2023/04/24 14:37:32;;;;;;;;;;;;;;;;;;5094672;28;19971;-62
2023/04/24 14:39:58;;;;;;;;;;;;;;;;;;5094931;28;19959;-62
2023/04/24 14:42:24;;;;;;;;;;;;;;;;;;5113105;28;19931;-62
2023/04/24 14:44:50;;;;;;;;;;;;;;;;;;5113513;28;19920;-62
2023/04/24 14:47:17;;;;;;;;;;;;;;;;;;5111700;28;19919;-60
2023/04/24 14:49:43;;;;;;;;;;;;;;;;;;5113191;28;19927;-62
2023/04/24 14:52:09;;;;;;;;;;;;;;;;;;5111497;28;19968;-64
2023/04/24 14:54:35;;;;;;;;;;;;;;;;;;5120898;28;19928;-65
2023/04/24 14:57:01;;;;;;;;;;;;;;;;;;5132007;28;19927;-65
2023/04/24 14:59:27;;;;;;;;;;;;;;;;;;5104989;28;19947;-65
2023/04/24 15:01:57;;;;;;;;;;;;;;;;;;5081833;27;19926;-64
2023/04/24 15:04:25;;;;;;;;;;;;;;;;;;5119825;27;20023;-64
2023/04/24 15:06:51;;;;;;;;;;;;;;;;;;5115979;28;19923;-64
2023/04/24 15:09:16;;;;;;;;;;;;;;;;;;5097808;28;20279;-65
2023/04/24 15:11:42;;;;;;;;;;;;;;;;;;5097982;28;19924;-64
2023/04/24 15:14:08;;;;;;;;;;;;;;;;;;5116032;28;19951;-64
2023/04/24 15:16:35;;;;;;;;;;;;;;;;;;5080799;28;19928;-64
2023/04/24 15:19:01;;;;;;;;;;;;;;;;;;5097468;28;19920;-64
2023/04/24 15:21:27;;;;;;;;;;;;;;;;;;5085225;28;20343;-65
2023/04/24 15:23:53;;;;;;;;;;;;;;;;;;5115365;28;19969;-65
2023/04/24 15:26:19;;;;;;;;;;;;;;;;;;5115454;28;19920;-64
2023/04/24 15:28:46;;;;;;;;;;;;;;;;;;5095377;28;20436;-65
2023/04/24 15:31:12;;;;;;;;;;;;;;;;;;5112283;28;20325;-65
2023/04/24 15:33:38;;;;;;;;;;;;;;;;;;5094832;28;19920;-65
2023/04/24 15:36:04;;;;;;;;;;;;;;;;;;5076594;28;19928;-65
2023/04/24 15:38:30;;;;;;;;;;;;;;;;;;5075729;28;20380;-64
2023/04/24 15:40:56;;;;;;;;;;;;;;;;;;5094289;28;19927;-65
2023/04/24 15:43:22;;;;;;;;;;;;;;;;;;5092247;28;19970;-65
2023/04/24 15:45:48;;;;;;;;;;;;;;;;;;5112606;28;19928;-65
2023/04/24 15:48:14;;;;;;;;;;;;;;;;;;5114718;28;20041;-66
2023/04/24 15:50:40;;;;;;;;;;;;;;;;;;5114633;28;19920;-66
2023/04/24 15:53:05;;;;;;;;;;;;;;;;;;5114515;28;19927;-65
2023/04/24 15:55:32;;;;;;;;;;;;;;;;;;5100410;28;20028;-65
2023/04/24 15:57:58;;;;;;;;;;;;;;;;;;5040228;28;19920;-65
2023/04/24 16:00:24;;;;;;;;;;;;;;;;;;5089452;28;19920;-65
2023/04/24 16:02:50;;;;;;;;;;;;;;;;;;5096869;28;19920;-65
2023/04/24 16:05:16;;;;;;;;;;;;;;;;;;5080028;28;19988;-62
2023/04/24 16:07:42;;;;;;;;;;;;;;;;;;5080297;28;20416;-62
2023/04/24 16:10:08;;;;;;;;;;;;;;;;;;5076950;28;19981;-62
2023/04/24 16:12:34;;;;;;;;;;;;;;;;;;5094404;28;19924;-62
2023/04/24 16:15:00;;;;;;;;;;;;;;;;;;5094402;28;19924;-62
2023/04/24 16:17:25;;;;;;;;;;;;;;;;;;5076216;28;19994;-62
2023/04/24 16:19:51;;;;;;;;;;;;;;;;;;5109158;28;19931;-62
2023/04/24 16:22:17;;;;;;;;;;;;;;;;;;5094467;28;20010;-61
2023/04/24 16:24:45;;;;;;;;;;;;;;;;;;5075714;28;19923;-61
2023/04/24 16:27:11;;;;;;;;;;;;;;;;;;5094416;28;20289;-61
2023/04/24 16:29:37;;;;;;;;;;;;;;;;;;5075650;28;19920;-62
2023/04/24 16:32:03;;;;;;;;;;;;;;;;;;5094454;28;19955;-62
2023/04/24 16:34:29;;;;;;;;;;;;;;;;;;5095145;28;20466;-61
2023/04/24 16:36:55;;;;;;;;;;;;;;;;;;5093731;28;19935;-61